Time;durP1;ratioP1;P1;durP2;ratioP2;P2;SDS_P1;SDS_P2;PMS_P1;PMS_P2;Temp;Humidity;BMP_temperature;BMP_pressure;BME280_temperature;BME280_humidity;BME280_pressure;Samples;Min_cycle;Max_cycle;Signal;HPM_P1;HPM_P2
2021/08/18 00:00:14;;;;;;;1.33;0.75;;;;;;;17.19;66.65;101149.81;4953322;28;20110;-59
2021/08/18 00:02:40;;;;;;;2.25;0.57;;;;;;;17.17;66.73;101142.00;4953109;29;20114;-59
2021/08/18 00:05:09;;;;;;;1.30;0.60;;;;;;;17.19;66.65;101136.47;4952489;29;20039;-59
2021/08/18 00:07:35;;;;;;;1.98;0.63;;;;;;;17.18;66.58;101142.84;4952573;29;20087;-59
2021/08/18 00:10:01;;;;;;;2.53;0.60;;;;;;;17.18;66.73;101137.50;4952609;28;20383;-59
2021/08/18 00:12:27;;;;;;;5.22;0.80;;;;;;;17.20;66.81;101133.63;4958539;28;20106;-59
2021/08/18 00:14:53;;;;;;;1.05;0.52;;;;;;;17.19;66.53;101131.97;4960704;28;20039;-59
2021/08/18 00:17:19;;;;;;;1.33;0.75;;;;;;;17.20;66.53;101132.81;4961461;28;20047;-59
2021/08/18 00:19:45;;;;;;;3.33;1.00;;;;;;;17.19;66.65;101131.97;4953045;29;20109;-59
2021/08/18 00:22:11;;;;;;;1.27;0.70;;;;;;;17.18;66.54;101130.31;4953923;28;20390;-59
2021/08/18 00:24:36;;;;;;;1.05;0.60;;;;;;;17.18;66.78;101124.97;4955483;29;20393;-59
2021/08/18 00:27:02;;;;;;;1.13;0.50;;;;;;;17.18;66.53;101124.13;4955203;28;20038;-59
2021/08/18 00:29:28;;;;;;;2.45;0.68;;;;;;;17.17;66.70;101130.50;4954952;29;20062;-59
2021/08/18 00:31:54;;;;;;;1.33;0.70;;;;;;;17.17;66.53;101119.81;4954969;28;20031;-59
2021/08/18 00:34:19;;;;;;;2.40;0.68;;;;;;;17.17;66.58;101117.13;4955190;28;20082;-59
2021/08/18 00:36:45;;;;;;;3.88;1.00;;;;;;;17.17;66.85;101109.94;4954888;28;20035;-59
2021/08/18 00:39:11;;;;;;;1.38;0.60;;;;;;;17.17;66.71;101112.59;4955140;28;20031;-59
2021/08/18 00:41:36;;;;;;;1.13;0.63;;;;;;;17.14;66.39;101107.59;4955015;28;20054;-59
2021/08/18 00:44:04;;;;;;;3.03;0.77;;;;;;;17.13;66.52;101107.78;4949855;28;20035;-59
2021/08/18 00:46:32;;;;;;;0.77;0.50;;;;;;;17.12;66.16;101106.94;4947569;29;20055;-59
2021/08/18 00:48:57;;;;;;;1.48;0.60;;;;;;;17.14;66.58;101104.13;4958872;28;20433;-59
2021/08/18 00:51:23;;;;;;;1.17;0.45;;;;;;;17.14;66.58;101099.59;4964377;28;20047;-59
2021/08/18 00:53:50;;;;;;;1.13;0.50;;;;;;;17.14;66.62;101091.56;4954514;28;20509;-59
2021/08/18 00:56:15;;;;;;;0.95;0.57;;;;;;;17.13;66.63;101091.75;4954977;28;20042;-59
2021/08/18 00:58:41;;;;;;;0.75;0.55;;;;;;;17.13;66.51;101089.94;4957415;28;20482;-59
2021/08/18 01:01:07;;;;;;;0.50;0.40;;;;;;;17.09;66.55;101081.41;4951042;28;20031;-59
2021/08/18 01:03:34;;;;;;;0.88;0.40;;;;;;;17.11;66.53;101081.25;4953144;29;20073;-59
2021/08/18 01:06:01;;;;;;;1.38;0.60;;;;;;;17.11;66.33;101079.41;4952748;28;20067;-59
2021/08/18 01:08:26;;;;;;;1.75;0.60;;;;;;;17.11;66.52;101076.75;4953239;29;20033;-59
2021/08/18 01:10:52;;;;;;;2.30;0.73;;;;;;;17.11;66.31;101078.56;4953124;29;20047;-57
2021/08/18 01:13:20;;;;;;;0.32;0.30;;;;;;;17.13;66.48;101081.91;4934748;29;20847;-60
2021/08/18 01:15:46;;;;;;;1.38;0.50;;;;;;;17.13;66.49;101073.06;4953387;28;20039;-60
2021/08/18 01:18:11;;;;;;;2.05;0.50;;;;;;;17.13;66.54;101073.91;4945046;28;20316;-59
2021/08/18 01:20:40;;;;;;;1.13;0.70;;;;;;;17.13;66.60;101073.06;4958603;28;20074;-59
2021/08/18 01:23:10;;;;;;;0.80;0.57;;;;;;;17.11;66.62;101067.88;4957665;28;20031;-57
2021/08/18 01:25:37;;;;;;;4.10;0.52;;;;;;;17.11;66.28;101062.53;4952863;28;20465;-57
2021/08/18 01:28:04;;;;;;;1.70;0.63;;;;;;;17.07;66.31;101062.00;4954250;29;20402;-57
2021/08/18 01:30:32;;;;;;;0.40;0.20;;;;;;;17.06;66.52;101054.19;4954396;28;20094;-57
2021/08/18 01:33:03;;;;;;;0.93;0.50;;;;;;;17.06;66.33;101068.38;4954358;29;20598;-57
2021/08/18 01:35:32;;;;;;;1.13;0.50;;;;;;;17.03;66.46;101060.72;4956043;28;20577;-57
2021/08/18 01:38:03;;;;;;;0.45;0.40;;;;;;;17.04;66.54;101058.88;4960520;28;20032;-57
2021/08/18 01:40:29;;;;;;;0.40;0.38;;;;;;;17.06;66.55;101051.50;4965605;28;20073;-57
2021/08/18 01:42:55;;;;;;;1.20;0.40;;;;;;;17.05;66.86;101056.03;4955250;28;20043;-57
2021/08/18 01:45:21;;;;;;;1.58;0.70;;;;;;;17.08;66.71;101049.53;4956020;28;20106;-58
2021/08/18 01:47:47;;;;;;;1.60;0.38;;;;;;;17.08;66.84;101042.38;4952873;29;20043;-58
2021/08/18 01:50:13;;;;;;;1.65;0.60;;;;;;;17.07;66.71;101048.66;4953840;28;20035;-57
2021/08/18 01:52:39;;;;;;;0.38;0.30;;;;;;;17.07;66.64;101043.31;4957167;28;20035;-57
2021/08/18 01:55:05;;;;;;;2.25;0.43;;;;;;;17.07;66.55;101047.84;4953834;28;20411;-57
2021/08/18 01:57:32;;;;;;;1.48;0.50;;;;;;;17.08;66.73;101046.88;4952483;29;20046;-58
2021/08/18 01:59:58;;;;;;;0.75;0.30;;;;;;;17.07;66.61;101047.84;4953780;28;20039;-57
2021/08/18 02:02:28;;;;;;;1.27;0.55;;;;;;;17.07;66.80;101037.16;4952478;29;20078;-57
2021/08/18 02:04:56;;;;;;;0.60;0.40;;;;;;;17.07;66.69;101048.66;4937264;29;20109;-57
2021/08/18 02:07:22;;;;;;;0.47;0.40;;;;;;;17.06;66.79;101044.34;4953792;28;20418;-57
2021/08/18 02:09:47;;;;;;;0.95;0.35;;;;;;;17.08;66.68;101038.84;4956273;28;20035;-57
2021/08/18 02:12:14;;;;;;;0.30;0.30;;;;;;;17.07;66.86;101035.31;4952732;29;20367;-57
2021/08/18 02:14:40;;;;;;;0.77;0.40;;;;;;;17.06;66.51;101033.66;4953622;28;20038;-57
2021/08/18 02:17:06;;;;;;;0.40;0.38;;;;;;;17.09;66.92;101032.50;4952468;29;20486;-57
2021/08/18 02:19:32;;;;;;;0.57;0.40;;;;;;;17.08;66.68;101023.66;4953279;29;20390;-57
2021/08/18 02:21:58;;;;;;;0.65;0.38;;;;;;;17.09;66.71;101029.81;4952233;28;20032;-57
2021/08/18 02:24:24;;;;;;;0.82;0.35;;;;;;;17.08;66.21;101028.16;4953205;28;20047;-57
2021/08/18 02:26:50;;;;;;;0.35;0.30;;;;;;;17.08;66.53;101034.34;4953287;28;20426;-57
2021/08/18 02:29:15;;;;;;;0.63;0.30;;;;;;;17.08;66.50;101025.50;4953237;28;20027;-57
2021/08/18 02:31:41;;;;;;;0.30;0.30;;;;;;;17.08;66.39;101026.34;4953244;28;20043;-57
2021/08/18 02:34:09;;;;;;;0.82;0.40;;;;;;;17.07;66.29;101021.16;4953209;28;20430;-57
2021/08/18 02:36:36;;;;;;;1.23;0.50;;;;;;;17.06;66.12;101014.13;4951782;29;20043;-57
2021/08/18 02:39:02;;;;;;;0.38;0.38;;;;;;;17.07;66.02;101015.81;4962175;28;20486;-57
2021/08/18 02:41:28;;;;;;;1.70;0.90;;;;;;;17.08;66.22;101012.16;4955372;28;20043;-57
2021/08/18 02:43:54;;;;;;;0.70;0.50;;;;;;;17.08;66.22;101013.00;4951636;29;20092;-57
2021/08/18 02:46:19;;;;;;;0.75;0.40;;;;;;;17.08;66.48;101009.47;4957149;28;20039;-57
2021/08/18 02:48:45;;;;;;;0.88;0.40;;;;;;;17.08;66.26;101007.66;4956356;28;20031;-57
2021/08/18 02:51:11;;;;;;;0.93;0.60;;;;;;;17.07;66.21;101005.94;4951979;29;20095;-57
2021/08/18 02:53:36;;;;;;;0.85;0.47;;;;;;;17.08;66.24;101010.31;4958128;28;20427;-57
2021/08/18 02:56:02;;;;;;;0.85;0.57;;;;;;;17.08;66.63;101002.31;4962492;28;20031;-57
2021/08/18 02:58:28;;;;;;;0.40;0.38;;;;;;;17.07;66.06;100997.91;4958862;28;20035;-57
2021/08/18 03:00:54;;;;;;;1.10;0.50;;;;;;;17.07;66.00;100997.91;4956824;28;20027;-57
2021/08/18 03:03:20;;;;;;;0.90;0.50;;;;;;;17.08;66.34;100996.97;4961884;28;20054;-57
2021/08/18 03:05:46;;;;;;;0.68;0.40;;;;;;;17.07;66.00;100997.09;4952864;28;20043;-57
2021/08/18 03:08:12;;;;;;;1.08;0.73;;;;;;;17.06;66.13;100995.41;4953204;28;20035;-57
2021/08/18 03:10:37;;;;;;;1.02;0.60;;;;;;;17.07;66.23;100997.91;4965002;28;20046;-57
2021/08/18 03:13:03;;;;;;;0.82;0.50;;;;;;;17.09;66.28;100995.94;4952933;28;20035;-57
2021/08/18 03:15:29;;;;;;;0.73;0.60;;;;;;;17.08;66.14;100996.97;4952665;28;20054;-57
2021/08/18 03:17:55;;;;;;;1.58;0.70;;;;;;;17.08;66.20;101001.47;4952646;28;20506;-57
2021/08/18 03:20:20;;;;;;;0.75;0.43;;;;;;;17.08;66.22;100988.09;4952747;28;20117;-57
2021/08/18 03:22:47;;;;;;;2.15;0.50;;;;;;;17.07;66.22;100989.91;4952393;28;20065;-57
2021/08/18 03:25:13;;;;;;;1.13;0.60;;;;;;;17.07;66.24;100994.44;4952634;28;20035;-57
2021/08/18 03:27:38;;;;;;;0.75;0.52;;;;;;;17.06;65.91;100988.25;4963264;28;20057;-57
2021/08/18 03:30:06;;;;;;;0.47;0.25;;;;;;;17.06;66.18;100990.91;4952527;28;20035;-57
2021/08/18 03:32:32;;;;;;;1.23;0.60;;;;;;;17.06;66.10;100995.41;4952885;28;20399;-57
2021/08/18 03:34:57;;;;;;;0.32;0.30;;;;;;;17.06;66.17;100979.41;4952351;28;20043;-57
2021/08/18 03:37:23;;;;;;;1.38;0.70;;;;;;;17.05;66.03;100975.91;4952597;28;20043;-57
2021/08/18 03:39:49;;;;;;;1.15;0.63;;;;;;;17.05;66.37;100975.06;4952613;29;20086;-57
2021/08/18 03:42:14;;;;;;;0.50;0.50;;;;;;;17.05;65.96;100980.41;4952346;28;20039;-57
2021/08/18 03:44:40;;;;;;;1.10;0.68;;;;;;;17.06;65.69;100982.06;4950675;28;20411;-57
2021/08/18 03:47:06;;;;;;;1.08;0.60;;;;;;;17.05;65.69;100969.72;4952825;28;20051;-57
2021/08/18 03:49:31;;;;;;;1.35;0.70;;;;;;;17.03;65.71;100977.91;4952252;28;20059;-57
2021/08/18 03:51:57;;;;;;;1.17;0.60;;;;;;;17.03;65.57;100975.25;4951635;28;20043;-57
2021/08/18 03:54:23;;;;;;;0.50;0.50;;;;;;;17.03;65.70;100977.91;4958872;28;20390;-57
2021/08/18 03:56:48;;;;;;;0.70;0.60;;;;;;;17.02;65.57;100970.94;4960136;28;20485;-57
2021/08/18 03:59:14;;;;;;;1.05;0.50;;;;;;;17.03;65.42;100969.06;4955715;28;20376;-57
2021/08/18 04:01:40;;;;;;;0.80;0.50;;;;;;;17.03;65.52;100969.91;4965684;28;20049;-57
2021/08/18 04:04:06;;;;;;;1.20;0.70;;;;;;;17.02;65.44;100962.06;4956129;28;20434;-57
2021/08/18 04:06:31;;;;;;;0.80;0.50;;;;;;;17.00;65.03;100964.91;4955736;28;20031;-57
2021/08/18 04:08:58;;;;;;;1.00;0.50;;;;;;;17.00;65.37;100954.22;4938469;28;20035;-57
2021/08/18 04:11:25;;;;;;;2.25;0.80;;;;;;;16.99;64.90;100952.59;4965911;28;20108;-57
2021/08/18 04:13:51;;;;;;;0.73;0.50;;;;;;;16.99;65.21;100958.72;4955471;28;20036;-57
2021/08/18 04:16:17;;;;;;;0.70;0.50;;;;;;;16.99;65.23;100950.72;4955652;28;20101;-57
2021/08/18 04:18:44;;;;;;;1.48;0.70;;;;;;;16.99;64.99;100944.56;4955406;28;20110;-57
2021/08/18 04:21:11;;;;;;;2.42;0.80;;;;;;;16.98;65.18;100942.88;4954097;28;20074;-57
2021/08/18 04:23:37;;;;;;;2.40;0.50;;;;;;;16.95;64.89;100945.91;4954244;28;20036;-57
2021/08/18 04:26:02;;;;;;;1.65;0.65;;;;;;;16.92;65.09;100941.75;4955448;28;20043;-57
2021/08/18 04:28:28;;;;;;;0.68;0.60;;;;;;;16.94;65.00;100939.75;4965551;28;20034;-57
2021/08/18 04:30:54;;;;;;;1.25;0.70;;;;;;;16.92;64.88;100943.59;4955259;29;20191;-57
2021/08/18 04:33:20;;;;;;;0.93;0.57;;;;;;;16.90;64.92;100932.28;4955289;29;20042;-57
2021/08/18 04:35:45;;;;;;;1.25;0.60;;;;;;;16.93;65.14;100931.91;4955290;28;20078;-57
2021/08/18 04:38:11;;;;;;;2.42;0.70;;;;;;;16.92;64.82;100933.75;4953879;29;20039;-57
2021/08/18 04:40:37;;;;;;;0.98;0.77;;;;;;;16.90;64.92;100941.09;4955243;28;20050;-57
2021/08/18 04:43:02;;;;;;;1.45;0.68;;;;;;;16.88;64.63;100940.47;4954961;28;20034;-57
2021/08/18 04:45:28;;;;;;;2.90;0.80;;;;;;;16.86;64.54;100937.13;4955442;28;20055;-57
2021/08/18 04:47:54;;;;;;;0.70;0.60;;;;;;;16.84;64.58;100936.44;4955186;28;20031;-57
2021/08/18 04:50:20;;;;;;;1.48;0.80;;;;;;;16.81;64.53;100932.31;4955055;28;20494;-57
2021/08/18 04:52:46;;;;;;;1.85;0.85;;;;;;;16.82;64.29;100931.28;4956483;28;20082;-57
2021/08/18 04:55:16;;;;;;;1.23;0.73;;;;;;;16.82;64.68;100931.28;4964628;28;20034;-57
2021/08/18 04:57:42;;;;;;;1.52;0.90;;;;;;;16.81;64.66;100932.31;4965411;28;20037;-57
2021/08/18 05:00:09;;;;;;;1.15;0.80;;;;;;;16.81;64.37;100928.78;4957386;28;20545;-57
2021/08/18 05:02:35;;;;;;;0.82;0.65;;;;;;;16.79;64.58;100931.63;4961056;28;20028;-57
2021/08/18 05:05:02;;;;;;;1.25;0.93;;;;;;;16.81;64.71;100936.81;4953320;29;20082;-57
2021/08/18 05:07:28;;;;;;;1.05;0.73;;;;;;;16.79;64.54;100931.63;4955011;28;20043;-57
2021/08/18 05:09:54;;;;;;;1.45;0.85;;;;;;;16.78;64.54;100921.97;4959534;28;20105;-57
2021/08/18 05:12:20;;;;;;;1.20;0.80;;;;;;;16.74;64.77;100923.31;4954789;28;20464;-57
2021/08/18 05:14:45;;;;;;;1.67;0.90;;;;;;;16.74;64.82;100929.50;4954536;28;20035;-57
2021/08/18 05:17:11;;;;;;;1.90;0.80;;;;;;;16.74;64.68;100924.16;4954355;28;20031;-57
2021/08/18 05:19:37;;;;;;;1.00;0.82;;;;;;;16.73;64.74;100924.31;4954520;28;20102;-57
2021/08/18 05:22:03;;;;;;;1.50;0.80;;;;;;;16.73;64.84;100921.66;4954610;28;20035;-57
2021/08/18 05:24:28;;;;;;;2.15;0.80;;;;;;;16.76;65.29;100921.31;4954372;29;20036;-57
2021/08/18 05:26:54;;;;;;;1.20;0.68;;;;;;;16.77;64.89;100919.47;4959462;28;20034;-57
2021/08/18 05:29:20;;;;;;;1.70;0.60;;;;;;;16.78;65.17;100919.31;4954516;28;20035;-57
2021/08/18 05:31:46;;;;;;;1.45;0.75;;;;;;;16.77;65.11;100920.28;4954248;28;20098;-57
2021/08/18 05:34:11;;;;;;;0.70;0.60;;;;;;;16.77;65.18;100922.97;4954001;28;20102;-57
2021/08/18 05:36:37;;;;;;;1.13;0.68;;;;;;;16.76;65.25;100921.31;4952952;29;20078;-57
2021/08/18 05:39:05;;;;;;;0.93;0.70;;;;;;;16.76;65.43;100913.28;4953941;28;20038;-57
2021/08/18 05:41:30;;;;;;;1.42;0.88;;;;;;;16.76;65.19;100913.28;4954411;28;20185;-57
2021/08/18 05:43:56;;;;;;;0.90;0.55;;;;;;;16.76;65.52;100918.63;4954284;28;20063;-57
2021/08/18 05:46:23;;;;;;;3.20;0.70;;;;;;;16.74;65.40;100920.63;4954204;29;20109;-57
2021/08/18 05:48:48;;;;;;;1.33;0.70;;;;;;;16.74;65.46;100917.97;4954074;28;20427;-57
2021/08/18 05:51:14;;;;;;;2.10;0.90;;;;;;;16.74;65.46;100916.13;4953755;29;20035;-57
2021/08/18 05:53:40;;;;;;;1.52;0.68;;;;;;;16.74;65.47;100915.31;4953674;28;20043;-57
2021/08/18 05:56:05;;;;;;;1.80;0.75;;;;;;;16.73;65.61;100925.16;4953879;28;20051;-57
2021/08/18 05:58:31;;;;;;;1.42;0.68;;;;;;;16.73;65.53;100924.31;4953655;28;20063;-57
2021/08/18 06:00:57;;;;;;;1.40;0.80;;;;;;;16.71;65.57;100912.97;4958171;28;20046;-57
2021/08/18 06:03:23;;;;;;;1.80;0.90;;;;;;;16.71;65.57;100921.81;4957276;28;20042;-57
2021/08/18 06:05:49;;;;;;;2.35;0.90;;;;;;;16.68;65.64;100921.34;4953663;28;20070;-57
2021/08/18 06:08:15;;;;;;;3.92;0.93;;;;;;;16.70;65.65;100920.19;4953715;28;20043;-57
2021/08/18 06:10:41;;;;;;;1.05;0.77;;;;;;;16.68;65.45;100916.84;4952234;29;20031;-56
2021/08/18 06:13:06;;;;;;;3.67;1.20;;;;;;;16.69;65.60;100915.00;4953568;28;20039;-57
2021/08/18 06:15:32;;;;;;;1.42;0.77;;;;;;;16.70;65.57;100919.34;4953331;28;20494;-57
2021/08/18 06:17:59;;;;;;;1.38;0.90;;;;;;;16.71;65.73;100921.81;4953539;28;20034;-57
2021/08/18 06:20:25;;;;;;;1.25;0.60;;;;;;;16.67;65.58;100917.84;4951792;28;20042;-57
2021/08/18 06:22:51;;;;;;;1.17;0.63;;;;;;;16.68;65.64;100924.00;4948859;28;20360;-57
2021/08/18 06:25:17;;;;;;;1.80;0.70;;;;;;;16.69;65.60;100920.34;4947695;29;20054;-57
2021/08/18 06:27:43;;;;;;;1.25;0.70;;;;;;;16.68;65.56;100919.50;4953361;28;20110;-57
2021/08/18 06:30:10;;;;;;;1.40;0.75;;;;;;;16.68;65.74;100914.16;4953185;28;20039;-57
2021/08/18 06:32:37;;;;;;;1.75;0.98;;;;;;;16.68;65.68;100922.16;4953433;28;20410;-57
2021/08/18 06:35:04;;;;;;;1.05;0.70;;;;;;;16.70;65.50;100925.50;4953571;28;20035;-57
2021/08/18 06:37:30;;;;;;;1.60;0.73;;;;;;;16.69;65.60;100917.69;4955117;28;20053;-57
2021/08/18 06:39:56;;;;;;;1.30;0.70;;;;;;;16.67;65.58;100927.69;4951516;28;20039;-57
2021/08/18 06:42:22;;;;;;;1.17;0.98;;;;;;;16.67;65.47;100923.19;4952742;28;20051;-57
2021/08/18 06:44:48;;;;;;;2.03;0.85;;;;;;;16.69;65.54;100928.34;4961459;28;20446;-57
2021/08/18 06:47:14;;;;;;;1.15;1.00;;;;;;;16.70;65.53;100936.19;4952839;28;20031;-57
2021/08/18 06:49:40;;;;;;;1.52;0.80;;;;;;;16.67;65.60;100933.88;4952423;28;20104;-57
2021/08/18 06:52:19;;;;;;;1.10;0.80;;;;;;;16.66;65.76;100929.50;4952350;28;20083;-57
2021/08/18 06:54:44;;;;;;;4.03;0.80;;;;;;;16.66;65.62;100928.69;4951884;28;20047;-57
2021/08/18 06:57:10;;;;;;;1.45;0.82;;;;;;;16.66;65.50;100921.50;4952559;29;20039;-57
2021/08/18 06:59:36;;;;;;;2.40;0.90;;;;;;;16.64;65.46;100934.22;4951952;28;20031;-57
2021/08/18 07:02:01;;;;;;;3.63;1.00;;;;;;;16.64;65.68;100928.03;4953429;28;20035;-57
2021/08/18 07:04:27;;;;;;;1.88;0.80;;;;;;;16.64;65.71;100923.53;4952450;28;20477;-57
2021/08/18 07:06:52;;;;;;;1.30;0.70;;;;;;;16.65;65.71;100922.53;4952464;28;20043;-57
2021/08/18 07:09:18;;;;;;;1.33;0.88;;;;;;;16.65;65.67;100913.66;4952778;28;20035;-57
2021/08/18 07:11:44;;;;;;;1.80;0.88;;;;;;;16.64;65.43;100914.69;4952513;29;20035;-57
2021/08/18 07:14:09;;;;;;;2.80;1.10;;;;;;;16.64;65.71;100912.84;4952741;28;20395;-57
2021/08/18 07:16:36;;;;;;;2.20;0.90;;;;;;;16.66;65.86;100910.03;4952449;28;20031;-57
2021/08/18 07:19:02;;;;;;;3.15;0.80;;;;;;;16.66;66.26;100910.81;4952722;28;20445;-57
2021/08/18 07:21:28;;;;;;;1.20;0.80;;;;;;;16.67;66.43;100911.66;4952865;28;20086;-57
2021/08/18 07:23:55;;;;;;;1.58;0.98;;;;;;;16.66;66.37;100902.81;4952491;28;20031;-57
2021/08/18 07:26:24;;;;;;;1.05;0.77;;;;;;;16.66;66.27;100900.16;4952078;28;20055;-57
2021/08/18 07:28:51;;;;;;;1.23;0.70;;;;;;;16.67;66.25;100896.50;4951940;28;20043;-57
2021/08/18 07:31:17;;;;;;;2.03;0.70;;;;;;;16.68;66.19;100902.66;4949452;28;20046;-57
2021/08/18 07:33:43;;;;;;;1.98;1.27;;;;;;;16.68;66.24;100902.66;4954905;28;20402;-57
2021/08/18 07:36:09;;;;;;;1.55;0.70;;;;;;;16.68;66.19;100900.81;4954437;28;20441;-57
2021/08/18 07:38:34;;;;;;;1.95;0.73;;;;;;;16.70;66.15;100909.50;4955393;28;20113;-57
2021/08/18 07:41:00;;;;;;;1.15;0.75;;;;;;;16.69;66.27;100902.47;4955668;28;20106;-57
2021/08/18 07:43:26;;;;;;;3.13;0.85;;;;;;;16.69;66.55;100904.34;4953101;28;20541;-57
2021/08/18 07:45:53;;;;;;;2.00;1.00;;;;;;;16.69;66.41;100901.66;4956183;29;20047;-57
2021/08/18 07:48:18;;;;;;;1.63;0.63;;;;;;;16.69;66.29;100910.47;4955423;28;20059;-57
2021/08/18 07:50:44;;;;;;;1.17;0.80;;;;;;;16.70;66.54;100911.31;4955771;28;20046;-57
2021/08/18 07:53:10;;;;;;;1.00;0.47;;;;;;;16.70;66.26;100908.66;4955563;28;20062;-57
2021/08/18 07:55:35;;;;;;;2.75;0.75;;;;;;;16.70;66.15;100908.66;4955562;28;20031;-57
2021/08/18 07:58:01;;;;;;;0.95;0.50;;;;;;;16.70;66.40;100906.81;4953444;28;20035;-57
2021/08/18 08:00:27;;;;;;;1.38;0.52;;;;;;;16.71;66.27;100902.31;4956769;28;20035;-57
2021/08/18 08:02:52;;;;;;;1.30;0.68;;;;;;;16.71;66.20;100899.63;4955407;28;20027;-57
2021/08/18 08:05:18;;;;;;;1.33;0.60;;;;;;;16.70;66.16;100890.81;4961924;28;20039;-57
2021/08/18 08:07:45;;;;;;;1.15;0.55;;;;;;;16.72;66.20;100887.97;4956002;28;20094;-57
2021/08/18 08:10:12;;;;;;;0.95;0.50;;;;;;;16.71;66.18;100881.78;4958687;28;20122;-57
2021/08/18 08:12:39;;;;;;;0.70;0.50;;;;;;;16.72;66.19;100887.97;4952417;28;20038;-57
2021/08/18 08:15:06;;;;;;;1.27;0.55;;;;;;;16.72;66.13;100883.44;4954043;28;20039;-57
2021/08/18 08:17:32;;;;;;;0.75;0.52;;;;;;;16.73;66.08;100884.28;4959556;28;20119;-57
2021/08/18 08:19:58;;;;;;;1.73;0.50;;;;;;;16.72;66.28;100880.78;4954415;28;20179;-57
2021/08/18 08:22:23;;;;;;;0.90;0.40;;;;;;;16.72;66.36;100888.78;4954300;28;20051;-57
2021/08/18 08:24:49;;;;;;;0.40;0.40;;;;;;;16.74;66.19;100889.44;4953321;29;20039;-57
2021/08/18 08:27:15;;;;;;;1.35;0.40;;;;;;;16.75;66.43;100884.94;4951891;28;20150;-57
2021/08/18 08:29:41;;;;;;;2.05;0.40;;;;;;;16.76;66.27;100886.59;4954136;29;20126;-57
2021/08/18 08:32:07;;;;;;;0.70;0.35;;;;;;;16.75;66.31;100887.63;4962006;28;20114;-57
2021/08/18 08:34:33;;;;;;;0.30;0.30;;;;;;;16.77;66.10;100888.25;4953768;28;20039;-57
2021/08/18 08:36:59;;;;;;;0.60;0.50;;;;;;;16.77;66.42;100874.09;4954416;29;20491;-57
2021/08/18 08:39:24;;;;;;;0.60;0.43;;;;;;;16.74;66.42;100877.94;4953915;29;20450;-57
2021/08/18 08:41:50;;;;;;;0.63;0.57;;;;;;;16.75;66.68;100879.63;4952737;28;20035;-57
2021/08/18 08:44:22;;;;;;;0.35;0.35;;;;;;;16.76;66.64;100869.75;4953606;28;20048;-58
2021/08/18 08:46:49;;;;;;;1.30;0.30;;;;;;;16.76;66.37;100873.25;4954765;28;20067;-58
2021/08/18 08:49:16;;;;;;;0.43;0.30;;;;;;;16.77;66.61;100874.91;4952167;28;20110;-57
2021/08/18 08:51:44;;;;;;;0.47;0.32;;;;;;;16.77;66.38;100871.44;4952344;28;20402;-57
2021/08/18 08:54:10;;;;;;;0.35;0.32;;;;;;;16.77;66.49;100877.56;4952267;28;20110;-57
2021/08/18 08:56:35;;;;;;;1.08;0.30;;;;;;;16.79;66.54;100869.41;4952532;29;20134;-58
2021/08/18 08:59:01;;;;;;;0.77;0.40;;;;;;;16.79;66.25;100867.56;4952738;28;20046;-57
2021/08/18 09:01:27;;;;;;;1.17;0.40;;;;;;;16.78;66.46;100863.25;4956555;28;20059;-58
2021/08/18 09:03:52;;;;;;;0.50;0.30;;;;;;;16.79;66.51;100864.06;4943204;28;20042;-57
2021/08/18 09:06:21;;;;;;;0.80;0.40;;;;;;;16.80;66.48;100863.88;4950983;28;20050;-57
2021/08/18 09:08:49;;;;;;;0.38;0.30;;;;;;;16.80;66.52;100863.88;4953775;28;20062;-57
2021/08/18 09:11:16;;;;;;;0.38;0.20;;;;;;;16.81;66.72;100860.22;4952495;28;20086;-58
2021/08/18 09:13:43;;;;;;;0.30;0.30;;;;;;;16.80;66.40;100861.22;4952629;29;20472;-57
2021/08/18 09:16:10;;;;;;;0.57;0.20;;;;;;;16.82;66.76;100851.19;4961025;28;20064;-57
2021/08/18 09:18:46;;;;;;;0.68;0.30;;;;;;;16.83;66.49;100852.03;4953119;28;20027;-58
2021/08/18 09:21:35;;;;;;;1.13;0.30;;;;;;;16.83;66.63;100852.03;4951565;28;20031;-57
2021/08/18 09:24:16;;;;;;;0.30;0.30;;;;;;;16.82;66.80;100859.22;4951381;28;20478;-58
2021/08/18 09:27:00;;;;;;;0.98;0.20;;;;;;;16.82;66.41;100856.53;4953226;28;20497;-57
2021/08/18 09:29:36;;;;;;;1.30;0.57;;;;;;;16.83;66.85;100860.84;4944102;29;20118;-57
2021/08/18 09:32:32;;;;;;;0.80;0.20;;;;;;;16.85;66.99;100860.72;4952580;28;20495;-58
2021/08/18 09:35:02;;;;;;;0.28;0.20;;;;;;;16.84;67.09;100865.22;4950952;28;20051;-58
2021/08/18 09:37:29;;;;;;;0.52;0.30;;;;;;;16.86;66.94;100865.03;4952651;28;20035;-59
2021/08/18 09:39:56;;;;;;;0.20;0.13;;;;;;;16.87;66.94;100858.69;4953287;28;20031;-59
2021/08/18 09:42:28;;;;;;;0.20;0.10;;;;;;;16.87;66.78;100861.34;4952749;28;20110;-59
2021/08/18 09:45:31;;;;;;;0.20;0.20;;;;;;;16.87;66.84;100850.66;4953421;28;20031;-59
2021/08/18 09:48:04;;;;;;;0.50;0.25;;;;;;;16.89;66.63;100854.00;4946607;28;20106;-59
2021/08/18 09:50:40;;;;;;;0.28;0.20;;;;;;;16.89;67.08;100845.16;4953753;28;20045;-58
2021/08/18 09:53:18;;;;;;;2.40;0.20;;;;;;;16.90;66.71;100842.31;4952883;28;20047;-58
2021/08/18 09:55:50;;;;;;;0.55;0.20;;;;;;;16.90;67.02;100834.28;4951034;28;20049;-59
2021/08/18 09:58:21;;;;;;;0.30;0.20;;;;;;;16.92;66.95;100826.94;4953188;29;20082;-59
2021/08/18 10:00:47;;;;;;;0.30;0.20;;;;;;;16.94;66.74;100832.13;4956287;28;20058;-59
2021/08/18 10:03:13;;;;;;;0.47;0.20;;;;;;;16.94;66.67;100832.94;4956487;28;20047;-59
2021/08/18 10:05:42;;;;;;;0.10;0.10;;;;;;;16.95;66.65;100826.59;4953605;29;20031;-59
2021/08/18 10:08:08;;;;;;;0.20;0.20;;;;;;;16.95;66.73;100826.59;4952854;28;20051;-59
2021/08/18 10:10:37;;;;;;;0.52;0.13;;;;;;;16.97;66.64;100831.75;4953013;28;20031;-58
2021/08/18 10:13:06;;;;;;;0.43;0.30;;;;;;;16.97;66.56;100829.94;4953362;28;20031;-58
2021/08/18 10:15:31;;;;;;;0.30;0.15;;;;;;;16.98;67.11;100820.06;4953269;28;20479;-58
2021/08/18 10:17:57;;;;;;;0.50;0.17;;;;;;;16.98;67.00;100820.06;4953373;28;20045;-58
2021/08/18 10:20:23;;;;;;;0.28;0.20;;;;;;;16.99;66.88;100825.22;4952022;29;20541;-58
2021/08/18 10:23:18;;;;;;;0.40;0.20;;;;;;;17.01;66.83;100827.72;4953446;28;20047;-58
2021/08/18 10:25:48;;;;;;;0.52;0.10;;;;;;;17.03;66.82;100822.19;4944167;28;20050;-59
2021/08/18 10:28:16;;;;;;;0.40;0.10;;;;;;;17.03;66.89;100822.19;4953438;28;20031;-57
2021/08/18 10:30:53;;;;;;;0.38;0.10;;;;;;;17.03;67.10;100822.19;4953014;28;20118;-57
2021/08/18 10:33:53;;;;;;;0.55;0.20;;;;;;;17.04;67.13;100816.66;4953234;28;20550;-58
2021/08/18 10:36:48;;;;;;;0.45;0.10;;;;;;;17.05;67.05;100821.03;4948321;29;20039;-57
2021/08/18 10:39:22;;;;;;;0.47;0.20;;;;;;;17.06;67.05;100812.00;4949796;28;20035;-57
2021/08/18 10:42:14;;;;;;;0.28;0.20;;;;;;;17.08;67.11;100814.50;4949820;28;20047;-57
2021/08/18 10:44:48;;;;;;;1.88;0.20;;;;;;;17.09;66.81;100809.00;4952119;28;20038;-57
2021/08/18 10:47:21;;;;;;;0.45;0.20;;;;;;;17.09;66.83;100809.00;4952570;28;20414;-57
2021/08/18 10:49:53;;;;;;;4.97;0.57;;;;;;;17.15;67.70;100809.31;4952177;28;20497;-60
2021/08/18 10:52:28;;;;;;;4.78;0.45;;;;;;;17.25;69.18;100809.06;4952041;28;20512;-70
2021/08/18 10:55:16;;;;;;;4.22;0.38;;;;;;;17.24;69.27;100805.53;4952855;28;20363;-59
2021/08/18 10:57:45;;;;;;;4.75;0.60;;;;;;;17.25;68.98;100815.22;4952454;28;20035;-58
2021/08/18 11:00:22;;;;;;;2.03;0.50;;;;;;;17.22;68.75;100805.72;4952261;28;20549;-58
2021/08/18 11:02:53;;;;;;;4.68;0.63;;;;;;;17.20;68.68;100810.41;4956206;28;20031;-58
2021/08/18 11:05:25;;;;;;;3.22;0.60;;;;;;;17.22;69.37;100804.88;4952612;28;20147;-59
2021/08/18 11:08:12;;;;;;;3.08;0.43;;;;;;;17.23;68.91;100801.22;4954072;28;20031;-59
2021/08/18 11:10:50;;;;;;;3.13;0.30;;;;;;;17.23;68.69;100799.38;4956636;28;20042;-59
2021/08/18 11:13:16;;;;;;;2.92;0.52;;;;;;;17.25;68.64;100799.19;4956706;29;20046;-59
2021/08/18 11:15:41;;;;;;;10.57;0.50;;;;;;;17.25;68.28;100801.84;4956759;28;20035;-59
2021/08/18 11:18:09;;;;;;;4.75;0.40;;;;;;;17.27;68.18;100801.69;4956573;28;20586;-58
2021/08/18 11:20:35;;;;;;;2.45;0.70;;;;;;;17.26;68.16;100800.88;4955239;28;20685;-59
2021/08/18 11:23:05;;;;;;;1.15;0.30;;;;;;;17.28;68.14;100798.00;4955525;28;20046;-60
2021/08/18 11:25:41;;;;;;;3.00;0.47;;;;;;;17.29;68.24;100797.84;4954782;28;20090;-59